sensor_id;sensor_type;location;lat;lon;timestamp;temperature;humidity
77100;SHT31;66602;48.922;2.414;2024-02-23T00:01:49;5.45;82.44
77100;SHT31;66602;48.922;2.414;2024-02-23T00:04:15;5.32;83.10
77100;SHT31;66602;48.922;2.414;2024-02-23T00:06:41;5.28;83.40
77100;SHT31;66602;48.922;2.414;2024-02-23T00:09:06;5.23;83.91
77100;SHT31;66602;48.922;2.414;2024-02-23T00:11:32;5.25;83.74
77100;SHT31;66602;48.922;2.414;2024-02-23T00:13:59;5.30;83.80
77100;SHT31;66602;48.922;2.414;2024-02-23T00:16:25;5.18;83.89
77100;SHT31;66602;48.922;2.414;2024-02-23T00:18:52;5.21;83.73
77100;SHT31;66602;48.922;2.414;2024-02-23T00:21:17;5.14;84.18
77100;SHT31;66602;48.922;2.414;2024-02-23T00:23:43;5.10;84.15
77100;SHT31;66602;48.922;2.414;2024-02-23T00:26:08;5.07;84.65
77100;SHT31;66602;48.922;2.414;2024-02-23T00:28:34;5.04;84.53
77100;SHT31;66602;48.922;2.414;2024-02-23T00:31:00;5.01;84.43
77100;SHT31;66602;48.922;2.414;2024-02-23T00:33:25;5.04;84.14
77100;SHT31;66602;48.922;2.414;2024-02-23T00:35:51;5.04;84.21
77100;SHT31;66602;48.922;2.414;2024-02-23T00:38:16;5.05;84.42
77100;SHT31;66602;48.922;2.414;2024-02-23T00:40:42;5.00;84.59
77100;SHT31;66602;48.922;2.414;2024-02-23T00:43:07;5.14;83.98
77100;SHT31;66602;48.922;2.414;2024-02-23T00:45:33;5.23;83.55
77100;SHT31;66602;48.922;2.414;2024-02-23T00:47:58;5.23;83.61
77100;SHT31;66602;48.922;2.414;2024-02-23T00:50:24;5.18;83.88
77100;SHT31;66602;48.922;2.414;2024-02-23T00:52:51;5.11;84.19
77100;SHT31;66602;48.922;2.414;2024-02-23T00:55:17;5.14;84.21
77100;SHT31;66602;48.922;2.414;2024-02-23T00:57:43;5.23;83.88
77100;SHT31;66602;48.922;2.414;2024-02-23T01:00:09;5.27;83.56
77100;SHT31;66602;48.922;2.414;2024-02-23T01:02:34;5.18;83.96
77100;SHT31;66602;48.922;2.414;2024-02-23T01:05:00;5.14;84.41
77100;SHT31;66602;48.922;2.414;2024-02-23T01:07:26;5.18;84.34
77100;SHT31;66602;48.922;2.414;2024-02-23T01:09:51;5.20;84.48
77100;SHT31;66602;48.922;2.414;2024-02-23T01:12:17;5.28;84.24
77100;SHT31;66602;48.922;2.414;2024-02-23T01:14:43;5.23;84.51
77100;SHT31;66602;48.922;2.414;2024-02-23T01:17:09;5.20;84.64
77100;SHT31;66602;48.922;2.414;2024-02-23T01:19:34;5.25;84.80
77100;SHT31;66602;48.922;2.414;2024-02-23T01:22:00;5.25;84.80
77100;SHT31;66602;48.922;2.414;2024-02-23T01:24:28;5.24;85.09
77100;SHT31;66602;48.922;2.414;2024-02-23T01:26:57;5.24;85.04
77100;SHT31;66602;48.922;2.414;2024-02-23T01:29:25;5.20;85.03
77100;SHT31;66602;48.922;2.414;2024-02-23T01:31:50;5.11;85.53
77100;SHT31;66602;48.922;2.414;2024-02-23T01:34:16;5.00;86.07
77100;SHT31;66602;48.922;2.414;2024-02-23T01:36:42;4.98;86.24
77100;SHT31;66602;48.922;2.414;2024-02-23T01:39:07;4.94;86.28
77100;SHT31;66602;48.922;2.414;2024-02-23T01:41:33;5.00;86.33
77100;SHT31;66602;48.922;2.414;2024-02-23T01:43:58;4.97;86.30
77100;SHT31;66602;48.922;2.414;2024-02-23T01:46:24;4.98;86.20
77100;SHT31;66602;48.922;2.414;2024-02-23T01:48:50;5.05;85.82
77100;SHT31;66602;48.922;2.414;2024-02-23T01:51:15;5.04;86.06
77100;SHT31;66602;48.922;2.414;2024-02-23T01:53:41;5.00;85.99
77100;SHT31;66602;48.922;2.414;2024-02-23T01:56:07;5.10;85.73
77100;SHT31;66602;48.922;2.414;2024-02-23T01:58:35;5.10;85.75
77100;SHT31;66602;48.922;2.414;2024-02-23T02:01:03;5.15;85.46
77100;SHT31;66602;48.922;2.414;2024-02-23T02:03:29;5.17;85.46
77100;SHT31;66602;48.922;2.414;2024-02-23T02:05:56;5.17;85.56
77100;SHT31;66602;48.922;2.414;2024-02-23T02:08:25;5.07;85.74
77100;SHT31;66602;48.922;2.414;2024-02-23T02:10:50;5.07;85.64
77100;SHT31;66602;48.922;2.414;2024-02-23T02:13:16;5.05;85.77
77100;SHT31;66602;48.922;2.414;2024-02-23T02:15:41;5.05;85.87
77100;SHT31;66602;48.922;2.414;2024-02-23T02:18:09;5.04;86.14
77100;SHT31;66602;48.922;2.414;2024-02-23T02:20:36;5.01;86.01
77100;SHT31;66602;48.922;2.414;2024-02-23T02:23:01;5.04;86.23
77100;SHT31;66602;48.922;2.414;2024-02-23T02:25:27;5.11;85.81
77100;SHT31;66602;48.922;2.414;2024-02-23T02:27:52;5.17;85.45
77100;SHT31;66602;48.922;2.414;2024-02-23T02:30:18;5.24;85.18
77100;SHT31;66602;48.922;2.414;2024-02-23T02:32:43;5.24;85.34
77100;SHT31;66602;48.922;2.414;2024-02-23T02:35:11;5.24;85.58
77100;SHT31;66602;48.922;2.414;2024-02-23T02:37:37;5.34;84.97
77100;SHT31;66602;48.922;2.414;2024-02-23T02:40:03;5.32;85.42
77100;SHT31;66602;48.922;2.414;2024-02-23T02:42:28;5.38;85.04
77100;SHT31;66602;48.922;2.414;2024-02-23T02:44:54;5.49;84.12
77100;SHT31;66602;48.922;2.414;2024-02-23T02:47:20;5.44;84.33
77100;SHT31;66602;48.922;2.414;2024-02-23T02:49:45;5.31;84.69
77100;SHT31;66602;48.922;2.414;2024-02-23T02:52:11;5.28;84.64
77100;SHT31;66602;48.922;2.414;2024-02-23T02:54:36;5.45;84.12
77100;SHT31;66602;48.922;2.414;2024-02-23T02:57:02;5.58;84.02
77100;SHT31;66602;48.922;2.414;2024-02-23T02:59:27;5.58;83.83
77100;SHT31;66602;48.922;2.414;2024-02-23T03:01:53;5.48;84.24
77100;SHT31;66602;48.922;2.414;2024-02-23T03:04:18;5.35;84.78
77100;SHT31;66602;48.922;2.414;2024-02-23T03:06:43;5.44;84.52
77100;SHT31;66602;48.922;2.414;2024-02-23T03:09:09;5.52;84.20
77100;SHT31;66602;48.922;2.414;2024-02-23T03:11:35;5.55;83.79
77100;SHT31;66602;48.922;2.414;2024-02-23T03:14:01;5.41;84.43
77100;SHT31;66602;48.922;2.414;2024-02-23T03:16:26;5.30;84.67
77100;SHT31;66602;48.922;2.414;2024-02-23T03:18:55;5.25;85.03
77100;SHT31;66602;48.922;2.414;2024-02-23T03:21:20;5.18;85.24
77100;SHT31;66602;48.922;2.414;2024-02-23T03:23:46;5.04;85.44
77100;SHT31;66602;48.922;2.414;2024-02-23T03:26:11;5.03;85.58
77100;SHT31;66602;48.922;2.414;2024-02-23T03:28:37;4.98;85.71
77100;SHT31;66602;48.922;2.414;2024-02-23T03:31:02;5.00;85.66
77100;SHT31;66602;48.922;2.414;2024-02-23T03:33:28;4.94;85.95
77100;SHT31;66602;48.922;2.414;2024-02-23T03:35:53;4.96;85.98
77100;SHT31;66602;48.922;2.414;2024-02-23T03:38:19;4.97;85.87
77100;SHT31;66602;48.922;2.414;2024-02-23T03:40:44;5.04;85.61
77100;SHT31;66602;48.922;2.414;2024-02-23T03:43:10;5.01;85.70
77100;SHT31;66602;48.922;2.414;2024-02-23T03:45:36;4.90;86.19
77100;SHT31;66602;48.922;2.414;2024-02-23T03:48:03;4.91;86.24
77100;SHT31;66602;48.922;2.414;2024-02-23T03:50:29;4.91;86.26
77100;SHT31;66602;48.922;2.414;2024-02-23T03:52:55;5.03;85.84
77100;SHT31;66602;48.922;2.414;2024-02-23T03:55:20;5.03;85.92
77100;SHT31;66602;48.922;2.414;2024-02-23T03:57:47;4.98;86.03
77100;SHT31;66602;48.922;2.414;2024-02-23T04:00:13;5.03;85.94
77100;SHT31;66602;48.922;2.414;2024-02-23T04:02:39;5.14;85.33
77100;SHT31;66602;48.922;2.414;2024-02-23T04:05:05;5.08;85.41
77100;SHT31;66602;48.922;2.414;2024-02-23T04:07:31;5.13;85.17
77100;SHT31;66602;48.922;2.414;2024-02-23T04:09:56;5.10;85.43
77100;SHT31;66602;48.922;2.414;2024-02-23T04:12:22;5.08;85.76
77100;SHT31;66602;48.922;2.414;2024-02-23T04:14:47;5.03;85.79
77100;SHT31;66602;48.922;2.414;2024-02-23T04:17:13;5.04;86.03
77100;SHT31;66602;48.922;2.414;2024-02-23T04:19:40;5.10;85.70
77100;SHT31;66602;48.922;2.414;2024-02-23T04:22:06;5.03;85.93
77100;SHT31;66602;48.922;2.414;2024-02-23T04:24:34;5.04;85.64
77100;SHT31;66602;48.922;2.414;2024-02-23T04:26:59;5.10;85.28
77100;SHT31;66602;48.922;2.414;2024-02-23T04:29:25;5.03;85.60
77100;SHT31;66602;48.922;2.414;2024-02-23T04:31:51;5.03;85.59
77100;SHT31;66602;48.922;2.414;2024-02-23T04:34:16;5.00;85.98
77100;SHT31;66602;48.922;2.414;2024-02-23T04:36:42;4.84;86.47
77100;SHT31;66602;48.922;2.414;2024-02-23T04:39:07;4.81;86.57
77100;SHT31;66602;48.922;2.414;2024-02-23T04:41:33;4.83;86.98
77100;SHT31;66602;48.922;2.414;2024-02-23T04:43:59;4.70;87.07
77100;SHT31;66602;48.922;2.414;2024-02-23T04:46:26;4.56;87.67
77100;SHT31;66602;48.922;2.414;2024-02-23T04:48:51;4.57;87.59
77100;SHT31;66602;48.922;2.414;2024-02-23T04:51:17;4.67;87.30
77100;SHT31;66602;48.922;2.414;2024-02-23T04:53:42;4.77;87.02
77100;SHT31;66602;48.922;2.414;2024-02-23T04:56:08;4.79;87.11
77100;SHT31;66602;48.922;2.414;2024-02-23T04:58:34;4.86;86.86
77100;SHT31;66602;48.922;2.414;2024-02-23T05:01:00;4.80;86.79
77100;SHT31;66602;48.922;2.414;2024-02-23T05:03:25;4.76;87.42
77100;SHT31;66602;48.922;2.414;2024-02-23T05:05:51;4.74;87.38
77100;SHT31;66602;48.922;2.414;2024-02-23T05:08:20;4.67;87.57
77100;SHT31;66602;48.922;2.414;2024-02-23T05:10:46;4.56;88.12
77100;SHT31;66602;48.922;2.414;2024-02-23T05:13:12;4.83;87.15
77100;SHT31;66602;48.922;2.414;2024-02-23T05:15:37;4.80;87.26
77100;SHT31;66602;48.922;2.414;2024-02-23T05:18:03;4.86;86.94
77100;SHT31;66602;48.922;2.414;2024-02-23T05:20:28;4.81;87.17
77100;SHT31;66602;48.922;2.414;2024-02-23T05:22:54;4.74;87.35
77100;SHT31;66602;48.922;2.414;2024-02-23T05:25:19;4.73;87.28
77100;SHT31;66602;48.922;2.414;2024-02-23T05:27:45;4.79;87.16
77100;SHT31;66602;48.922;2.414;2024-02-23T05:30:11;4.70;87.55
77100;SHT31;66602;48.922;2.414;2024-02-23T05:32:37;4.70;87.67
77100;SHT31;66602;48.922;2.414;2024-02-23T05:35:03;4.70;87.46
77100;SHT31;66602;48.922;2.414;2024-02-23T05:37:28;4.66;87.96
77100;SHT31;66602;48.922;2.414;2024-02-23T05:39:54;4.81;87.10
77100;SHT31;66602;48.922;2.414;2024-02-23T05:42:19;4.84;87.11
77100;SHT31;66602;48.922;2.414;2024-02-23T05:44:46;4.87;86.99
77100;SHT31;66602;48.922;2.414;2024-02-23T05:47:11;4.94;86.65
77100;SHT31;66602;48.922;2.414;2024-02-23T05:49:39;5.00;86.27
77100;SHT31;66602;48.922;2.414;2024-02-23T05:52:04;5.00;86.27
77100;SHT31;66602;48.922;2.414;2024-02-23T05:54:30;4.94;86.37
77100;SHT31;66602;48.922;2.414;2024-02-23T05:56:55;4.98;86.21
77100;SHT31;66602;48.922;2.414;2024-02-23T05:59:20;4.96;86.25
77100;SHT31;66602;48.922;2.414;2024-02-23T06:01:46;5.05;86.09
77100;SHT31;66602;48.922;2.414;2024-02-23T06:04:11;5.14;86.01
77100;SHT31;66602;48.922;2.414;2024-02-23T06:06:37;5.15;85.58
77100;SHT31;66602;48.922;2.414;2024-02-23T06:09:02;5.03;86.07
77100;SHT31;66602;48.922;2.414;2024-02-23T06:11:29;5.00;86.39
77100;SHT31;66602;48.922;2.414;2024-02-23T06:13:54;5.03;86.30
77100;SHT31;66602;48.922;2.414;2024-02-23T06:16:21;4.94;86.34
77100;SHT31;66602;48.922;2.414;2024-02-23T06:18:46;4.86;86.85
77100;SHT31;66602;48.922;2.414;2024-02-23T06:21:15;4.67;87.20
77100;SHT31;66602;48.922;2.414;2024-02-23T06:23:41;4.69;87.36
77100;SHT31;66602;48.922;2.414;2024-02-23T06:26:07;4.62;87.59
77100;SHT31;66602;48.922;2.414;2024-02-23T06:28:33;4.48;87.79
77100;SHT31;66602;48.922;2.414;2024-02-23T06:30:58;4.48;88.16
77100;SHT31;66602;48.922;2.414;2024-02-23T06:33:24;4.39;88.25
77100;SHT31;66602;48.922;2.414;2024-02-23T06:35:50;4.29;88.76
77100;SHT31;66602;48.922;2.414;2024-02-23T06:38:16;4.31;88.81
77100;SHT31;66602;48.922;2.414;2024-02-23T06:40:41;4.39;88.43
77100;SHT31;66602;48.922;2.414;2024-02-23T06:43:07;4.25;88.72
77100;SHT31;66602;48.922;2.414;2024-02-23T06:45:33;4.21;89.15
77100;SHT31;66602;48.922;2.414;2024-02-23T06:47:58;4.22;89.17
77100;SHT31;66602;48.922;2.414;2024-02-23T06:50:24;4.31;89.05
77100;SHT31;66602;48.922;2.414;2024-02-23T06:52:49;4.46;88.70
77100;SHT31;66602;48.922;2.414;2024-02-23T06:55:15;4.57;88.32
77100;SHT31;66602;48.922;2.414;2024-02-23T06:57:42;4.67;87.95
77100;SHT31;66602;48.922;2.414;2024-02-23T07:00:08;4.77;87.51
77100;SHT31;66602;48.922;2.414;2024-02-23T07:02:34;4.84;86.97
77100;SHT31;66602;48.922;2.414;2024-02-23T07:05:02;4.90;86.72
77100;SHT31;66602;48.922;2.414;2024-02-23T07:07:32;4.81;87.04
77100;SHT31;66602;48.922;2.414;2024-02-23T07:09:59;4.86;86.83
77100;SHT31;66602;48.922;2.414;2024-02-23T07:12:25;4.79;87.07
77100;SHT31;66602;48.922;2.414;2024-02-23T07:14:53;4.97;86.92
77100;SHT31;66602;48.922;2.414;2024-02-23T07:17:18;5.24;86.06
77100;SHT31;66602;48.922;2.414;2024-02-23T07:19:44;5.48;85.02
77100;SHT31;66602;48.922;2.414;2024-02-23T07:22:10;5.54;84.87
77100;SHT31;66602;48.922;2.414;2024-02-23T07:24:42;5.59;84.33
77100;SHT31;66602;48.922;2.414;2024-02-23T07:27:08;5.56;84.60
77100;SHT31;66602;48.922;2.414;2024-02-23T07:29:34;5.55;84.66
77100;SHT31;66602;48.922;2.414;2024-02-23T07:31:59;5.55;84.76
77100;SHT31;66602;48.922;2.414;2024-02-23T07:34:24;5.58;84.86
77100;SHT31;66602;48.922;2.414;2024-02-23T07:36:54;5.62;84.57
77100;SHT31;66602;48.922;2.414;2024-02-23T07:39:20;5.67;84.54
77100;SHT31;66602;48.922;2.414;2024-02-23T07:41:45;5.67;84.62
77100;SHT31;66602;48.922;2.414;2024-02-23T07:44:11;5.75;84.32
77100;SHT31;66602;48.922;2.414;2024-02-23T07:46:37;6.37;83.32
77100;SHT31;66602;48.922;2.414;2024-02-23T07:49:03;6.75;81.21
77100;SHT31;66602;48.922;2.414;2024-02-23T07:51:29;7.71;78.57
77100;SHT31;66602;48.922;2.414;2024-02-23T07:53:54;7.71;77.53
77100;SHT31;66602;48.922;2.414;2024-02-23T07:56:20;7.03;79.20
77100;SHT31;66602;48.922;2.414;2024-02-23T07:58:46;6.91;80.23
77100;SHT31;66602;48.922;2.414;2024-02-23T08:01:13;6.92;80.49
77100;SHT31;66602;48.922;2.414;2024-02-23T08:03:39;6.99;80.21
77100;SHT31;66602;48.922;2.414;2024-02-23T08:06:05;6.82;81.01
77100;SHT31;66602;48.922;2.414;2024-02-23T08:08:30;6.84;80.79
77100;SHT31;66602;48.922;2.414;2024-02-23T08:11:03;6.85;80.90
77100;SHT31;66602;48.922;2.414;2024-02-23T08:13:29;6.89;80.60
77100;SHT31;66602;48.922;2.414;2024-02-23T08:15:55;6.76;80.89
77100;SHT31;66602;48.922;2.414;2024-02-23T08:18:20;6.88;80.56
77100;SHT31;66602;48.922;2.414;2024-02-23T08:20:48;7.13;80.05
77100;SHT31;66602;48.922;2.414;2024-02-23T08:23:13;7.26;79.45
77100;SHT31;66602;48.922;2.414;2024-02-23T08:25:39;7.15;79.67
77100;SHT31;66602;48.922;2.414;2024-02-23T08:28:05;7.28;79.17
77100;SHT31;66602;48.922;2.414;2024-02-23T08:30:31;7.33;79.23
77100;SHT31;66602;48.922;2.414;2024-02-23T08:32:57;7.43;78.93
77100;SHT31;66602;48.922;2.414;2024-02-23T08:35:22;7.64;78.05
77100;SHT31;66602;48.922;2.414;2024-02-23T08:37:48;7.91;77.33
77100;SHT31;66602;48.922;2.414;2024-02-23T08:40:13;8.10;76.28
77100;SHT31;66602;48.922;2.414;2024-02-23T08:42:39;8.53;75.19
77100;SHT31;66602;48.922;2.414;2024-02-23T08:45:05;8.36;75.09
77100;SHT31;66602;48.922;2.414;2024-02-23T08:47:31;8.16;75.48
77100;SHT31;66602;48.922;2.414;2024-02-23T08:50:02;7.95;76.33
77100;SHT31;66602;48.922;2.414;2024-02-23T08:52:28;8.01;77.46
77100;SHT31;66602;48.922;2.414;2024-02-23T08:54:55;7.95;76.37
77100;SHT31;66602;48.922;2.414;2024-02-23T08:57:20;8.66;75.14
77100;SHT31;66602;48.922;2.414;2024-02-23T08:59:49;8.94;73.45
77100;SHT31;66602;48.922;2.414;2024-02-23T09:02:15;8.64;74.07
77100;SHT31;66602;48.922;2.414;2024-02-23T09:04:41;8.57;74.25
77100;SHT31;66602;48.922;2.414;2024-02-23T09:07:06;8.94;73.35
77100;SHT31;66602;48.922;2.414;2024-02-23T09:09:32;9.63;71.20
77100;SHT31;66602;48.922;2.414;2024-02-23T09:11:58;9.39;72.13
77100;SHT31;66602;48.922;2.414;2024-02-23T09:14:23;9.36;71.64
77100;SHT31;66602;48.922;2.414;2024-02-23T09:16:50;11.10;67.03
77100;SHT31;66602;48.922;2.414;2024-02-23T09:19:16;10.96;65.88
77100;SHT31;66602;48.922;2.414;2024-02-23T09:21:42;10.44;67.94
77100;SHT31;66602;48.922;2.414;2024-02-23T09:24:08;9.91;69.72
77100;SHT31;66602;48.922;2.414;2024-02-23T09:26:33;9.82;70.54
77100;SHT31;66602;48.922;2.414;2024-02-23T09:28:59;9.62;71.43
77100;SHT31;66602;48.922;2.414;2024-02-23T09:31:26;9.67;70.88
77100;SHT31;66602;48.922;2.414;2024-02-23T09:33:54;9.47;71.26
77100;SHT31;66602;48.922;2.414;2024-02-23T09:36:20;9.60;71.08
77100;SHT31;66602;48.922;2.414;2024-02-23T09:38:47;9.50;71.79
77100;SHT31;66602;48.922;2.414;2024-02-23T09:41:23;8.97;72.80
77100;SHT31;66602;48.922;2.414;2024-02-23T09:43:50;8.89;73.80
77100;SHT31;66602;48.922;2.414;2024-02-23T09:46:17;8.89;74.50
77100;SHT31;66602;48.922;2.414;2024-02-23T09:48:47;8.63;74.38
77100;SHT31;66602;48.922;2.414;2024-02-23T09:51:17;8.36;76.13
77100;SHT31;66602;48.922;2.414;2024-02-23T09:53:43;8.26;76.02
77100;SHT31;66602;48.922;2.414;2024-02-23T09:56:10;8.39;76.07
77100;SHT31;66602;48.922;2.414;2024-02-23T09:58:36;8.44;75.41
77100;SHT31;66602;48.922;2.414;2024-02-23T10:01:03;8.56;75.86
77100;SHT31;66602;48.922;2.414;2024-02-23T10:03:29;8.57;75.23
77100;SHT31;66602;48.922;2.414;2024-02-23T10:05:58;8.68;75.37
77100;SHT31;66602;48.922;2.414;2024-02-23T10:08:27;8.57;75.28
77100;SHT31;66602;48.922;2.414;2024-02-23T10:10:53;8.60;75.54
77100;SHT31;66602;48.922;2.414;2024-02-23T10:13:29;8.49;75.48
77100;SHT31;66602;48.922;2.414;2024-02-23T10:15:54;8.30;76.28
77100;SHT31;66602;48.922;2.414;2024-02-23T10:18:20;8.44;76.04
77100;SHT31;66602;48.922;2.414;2024-02-23T10:20:46;8.35;76.18
77100;SHT31;66602;48.922;2.414;2024-02-23T10:23:12;8.33;75.95
77100;SHT31;66602;48.922;2.414;2024-02-23T10:25:38;8.29;76.53
77100;SHT31;66602;48.922;2.414;2024-02-23T10:28:04;8.52;75.57
77100;SHT31;66602;48.922;2.414;2024-02-23T10:30:30;8.94;73.22
77100;SHT31;66602;48.922;2.414;2024-02-23T10:32:57;9.12;73.44
77100;SHT31;66602;48.922;2.414;2024-02-23T10:35:25;8.91;74.08
77100;SHT31;66602;48.922;2.414;2024-02-23T10:37:53;8.91;73.81
77100;SHT31;66602;48.922;2.414;2024-02-23T10:40:19;8.91;73.69
77100;SHT31;66602;48.922;2.414;2024-02-23T10:42:47;8.94;73.98
77100;SHT31;66602;48.922;2.414;2024-02-23T10:45:18;9.34;73.15
77100;SHT31;66602;48.922;2.414;2024-02-23T10:47:44;9.62;71.77
77100;SHT31;66602;48.922;2.414;2024-02-23T10:50:09;9.31;72.87
77100;SHT31;66602;48.922;2.414;2024-02-23T10:52:40;9.49;71.79
77100;SHT31;66602;48.922;2.414;2024-02-23T10:55:08;9.18;73.23
77100;SHT31;66602;48.922;2.414;2024-02-23T10:57:35;8.88;74.72
77100;SHT31;66602;48.922;2.414;2024-02-23T11:00:02;8.19;77.67
77100;SHT31;66602;48.922;2.414;2024-02-23T11:02:32;7.78;80.85
77100;SHT31;66602;48.922;2.414;2024-02-23T11:04:59;7.53;82.15
77100;SHT31;66602;48.922;2.414;2024-02-23T11:07:25;7.34;83.02
77100;SHT31;66602;48.922;2.414;2024-02-23T11:09:59;7.60;82.68
77100;SHT31;66602;48.922;2.414;2024-02-23T11:12:26;11.57;70.21
77100;SHT31;66602;48.922;2.414;2024-02-23T11:14:57;14.11;63.05
77100;SHT31;66602;48.922;2.414;2024-02-23T11:17:27;12.76;64.28
77100;SHT31;66602;48.922;2.414;2024-02-23T11:19:56;13.14;63.31
77100;SHT31;66602;48.922;2.414;2024-02-23T11:22:26;11.35;67.93
77100;SHT31;66602;48.922;2.414;2024-02-23T11:24:53;10.97;70.30
77100;SHT31;66602;48.922;2.414;2024-02-23T11:27:19;10.55;71.35
77100;SHT31;66602;48.922;2.414;2024-02-23T11:29:48;9.69;72.88
77100;SHT31;66602;48.922;2.414;2024-02-23T11:32:40;9.35;75.39
77100;SHT31;66602;48.922;2.414;2024-02-23T11:35:15;9.57;75.14
77100;SHT31;66602;48.922;2.414;2024-02-23T11:37:54;9.62;73.96
77100;SHT31;66602;48.922;2.414;2024-02-23T11:40:32;10.37;70.78
77100;SHT31;66602;48.922;2.414;2024-02-23T11:42:59;11.65;67.00
77100;SHT31;66602;48.922;2.414;2024-02-23T11:45:28;12.26;63.65
77100;SHT31;66602;48.922;2.414;2024-02-23T11:47:54;12.33;62.86
77100;SHT31;66602;48.922;2.414;2024-02-23T11:50:19;13.36;59.31
77100;SHT31;66602;48.922;2.414;2024-02-23T11:52:46;13.21;59.30
77100;SHT31;66602;48.922;2.414;2024-02-23T11:55:12;12.67;61.73
77100;SHT31;66602;48.922;2.414;2024-02-23T11:57:39;13.22;59.97
77100;SHT31;66602;48.922;2.414;2024-02-23T12:00:05;12.77;60.77
77100;SHT31;66602;48.922;2.414;2024-02-23T12:02:35;11.92;63.28
77100;SHT31;66602;48.922;2.414;2024-02-23T12:05:01;11.65;62.03
77100;SHT31;66602;48.922;2.414;2024-02-23T12:07:29;11.09;65.59
77100;SHT31;66602;48.922;2.414;2024-02-23T12:09:56;10.86;67.02
77100;SHT31;66602;48.922;2.414;2024-02-23T12:12:22;11.14;67.06
77100;SHT31;66602;48.922;2.414;2024-02-23T12:14:48;11.35;65.14
77100;SHT31;66602;48.922;2.414;2024-02-23T12:17:14;10.79;66.59
77100;SHT31;66602;48.922;2.414;2024-02-23T12:19:40;10.34;66.81
77100;SHT31;66602;48.922;2.414;2024-02-23T12:22:06;10.25;68.23
77100;SHT31;66602;48.922;2.414;2024-02-23T12:24:31;10.61;66.03
77100;SHT31;66602;48.922;2.414;2024-02-23T12:26:58;10.65;66.00
77100;SHT31;66602;48.922;2.414;2024-02-23T12:29:24;10.82;65.62
77100;SHT31;66602;48.922;2.414;2024-02-23T12:31:49;10.77;65.67
77100;SHT31;66602;48.922;2.414;2024-02-23T12:34:15;10.58;64.41
77100;SHT31;66602;48.922;2.414;2024-02-23T12:36:41;10.48;64.22
77100;SHT31;66602;48.922;2.414;2024-02-23T12:39:07;10.54;64.55
77100;SHT31;66602;48.922;2.414;2024-02-23T12:41:34;10.75;63.99
77100;SHT31;66602;48.922;2.414;2024-02-23T12:44:00;11.38;62.60
77100;SHT31;66602;48.922;2.414;2024-02-23T12:46:25;11.82;61.18
77100;SHT31;66602;48.922;2.414;2024-02-23T12:48:51;13.96;55.65
77100;SHT31;66602;48.922;2.414;2024-02-23T12:54:22;14.64;51.76
77100;SHT31;66602;48.922;2.414;2024-02-23T12:56:51;14.44;52.37
77100;SHT31;66602;48.922;2.414;2024-02-23T12:59:16;14.06;54.37
77100;SHT31;66602;48.922;2.414;2024-02-23T13:01:42;13.22;57.07
77100;SHT31;66602;48.922;2.414;2024-02-23T13:04:07;13.46;58.54
77100;SHT31;66602;48.922;2.414;2024-02-23T13:06:37;13.00;59.95
77100;SHT31;66602;48.922;2.414;2024-02-23T13:09:03;14.14;56.78
77100;SHT31;66602;48.922;2.414;2024-02-23T13:11:30;16.01;53.63
77100;SHT31;66602;48.922;2.414;2024-02-23T13:13:55;15.47;53.04
77100;SHT31;66602;48.922;2.414;2024-02-23T13:16:21;14.68;53.90
77100;SHT31;66602;48.922;2.414;2024-02-23T13:18:46;13.77;55.19
77100;SHT31;66602;48.922;2.414;2024-02-23T13:21:13;13.80;53.91
77100;SHT31;66602;48.922;2.414;2024-02-23T13:23:38;13.38;55.51
77100;SHT31;66602;48.922;2.414;2024-02-23T13:26:04;12.84;56.82
77100;SHT31;66602;48.922;2.414;2024-02-23T13:28:30;12.43;57.12
77100;SHT31;66602;48.922;2.414;2024-02-23T13:30:56;13.36;56.39
77100;SHT31;66602;48.922;2.414;2024-02-23T13:33:21;15.19;51.86
77100;SHT31;66602;48.922;2.414;2024-02-23T13:35:49;13.58;52.21
77100;SHT31;66602;48.922;2.414;2024-02-23T13:38:15;13.65;54.40
77100;SHT31;66602;48.922;2.414;2024-02-23T13:40:41;14.59;51.48
77100;SHT31;66602;48.922;2.414;2024-02-23T13:43:06;13.35;54.84
77100;SHT31;66602;48.922;2.414;2024-02-23T13:45:32;12.76;55.44
77100;SHT31;66602;48.922;2.414;2024-02-23T13:48:02;13.73;54.91
77100;SHT31;66602;48.922;2.414;2024-02-23T13:50:29;14.28;53.48
77100;SHT31;66602;48.922;2.414;2024-02-23T13:52:55;14.93;51.26
77100;SHT31;66602;48.922;2.414;2024-02-23T13:55:22;15.84;49.29
77100;SHT31;66602;48.922;2.414;2024-02-23T13:57:49;16.32;47.56
77100;SHT31;66602;48.922;2.414;2024-02-23T14:00:17;15.41;49.02
77100;SHT31;66602;48.922;2.414;2024-02-23T14:02:44;13.45;53.08
77100;SHT31;66602;48.922;2.414;2024-02-23T14:05:14;12.33;57.43
77100;SHT31;66602;48.922;2.414;2024-02-23T14:08:18;11.44;60.98
77100;SHT31;66602;48.922;2.414;2024-02-23T14:10:47;11.07;62.84
77100;SHT31;66602;48.922;2.414;2024-02-23T14:13:16;10.79;62.83
77100;SHT31;66602;48.922;2.414;2024-02-23T14:18:16;10.24;65.50
77100;SHT31;66602;48.922;2.414;2024-02-23T14:20:44;10.21;65.87
77100;SHT31;66602;48.922;2.414;2024-02-23T14:23:14;10.24;65.53
77100;SHT31;66602;48.922;2.414;2024-02-23T14:26:21;10.21;65.68
77100;SHT31;66602;48.922;2.414;2024-02-23T14:28:47;10.17;66.27
77100;SHT31;66602;48.922;2.414;2024-02-23T14:31:15;10.07;67.09
77100;SHT31;66602;48.922;2.414;2024-02-23T14:33:41;9.83;68.24
77100;SHT31;66602;48.922;2.414;2024-02-23T14:36:07;9.69;69.73
77100;SHT31;66602;48.922;2.414;2024-02-23T14:38:34;9.50;71.78
77100;SHT31;66602;48.922;2.414;2024-02-23T14:41:28;8.43;74.85
77100;SHT31;66602;48.922;2.414;2024-02-23T14:45:03;7.70;80.84
77100;SHT31;66602;48.922;2.414;2024-02-23T14:48:43;7.79;81.27
77100;SHT31;66602;48.922;2.414;2024-02-23T15:07:17;7.91;76.73
77100;SHT31;66602;48.922;2.414;2024-02-23T15:25:17;7.28;83.64
77100;SHT31;66602;48.922;2.414;2024-02-23T15:28:29;7.37;83.16
77100;SHT31;66602;48.922;2.414;2024-02-23T15:31:19;7.27;83.56
77100;SHT31;66602;48.922;2.414;2024-02-23T15:33:59;7.28;84.27
77100;SHT31;66602;48.922;2.414;2024-02-23T15:37:16;7.27;83.37
77100;SHT31;66602;48.922;2.414;2024-02-23T15:40:17;7.38;82.99
77100;SHT31;66602;48.922;2.414;2024-02-23T15:42:52;7.38;83.85
77100;SHT31;66602;48.922;2.414;2024-02-23T15:45:42;7.51;81.69
77100;SHT31;66602;48.922;2.414;2024-02-23T15:48:10;7.57;79.34
77100;SHT31;66602;48.922;2.414;2024-02-23T15:50:38;7.61;80.06
77100;SHT31;66602;48.922;2.414;2024-02-23T15:53:42;7.70;79.20
77100;SHT31;66602;48.922;2.414;2024-02-23T15:56:56;7.67;80.07
77100;SHT31;66602;48.922;2.414;2024-02-23T16:00:08;7.65;80.26
77100;SHT31;66602;48.922;2.414;2024-02-23T16:02:57;7.65;79.03
77100;SHT31;66602;48.922;2.414;2024-02-23T16:05:46;7.77;78.90
77100;SHT31;66602;48.922;2.414;2024-02-23T16:09:03;7.86;78.00
77100;SHT31;66602;48.922;2.414;2024-02-23T16:14:43;8.40;77.05
77100;SHT31;66602;48.922;2.414;2024-02-23T16:17:09;8.74;75.67
77100;SHT31;66602;48.922;2.414;2024-02-23T16:19:40;8.98;74.42
77100;SHT31;66602;48.922;2.414;2024-02-23T16:23:00;8.97;74.49
77100;SHT31;66602;48.922;2.414;2024-02-23T16:25:56;8.94;75.66
77100;SHT31;66602;48.922;2.414;2024-02-23T16:28:25;8.87;74.77
77100;SHT31;66602;48.922;2.414;2024-02-23T16:31:46;8.73;75.44